sensor_id;sensor_type;location;lat;lon;timestamp;pressure;altitude;pressure_sealevel;temperature;humidity
3664;BME280;1848;51.042;7.066;2022-07-01T00:00:25;100233.56;;;14.12;100.00
3664;BME280;1848;51.042;7.066;2022-07-01T00:02:52;100243.94;;;14.08;100.00
3664;BME280;1848;51.042;7.066;2022-07-01T00:05:19;100243.94;;;14.08;100.00
3664;BME280;1848;51.042;7.066;2022-07-01T00:07:46;100256.97;;;14.05;100.00
3664;BME280;1848;51.042;7.066;2022-07-01T00:10:13;100239.66;;;13.94;100.00
3664;BME280;1848;51.042;7.066;2022-07-01T00:12:40;100240.28;;;13.96;100.00
3664;BME280;1848;51.042;7.066;2022-07-01T00:15:07;100231.00;;;13.92;100.00
3664;BME280;1848;51.042;7.066;2022-07-01T00:17:35;100230.22;;;13.85;100.00
3664;BME280;1848;51.042;7.066;2022-07-01T00:20:03;100231.66;;;13.81;100.00
3664;BME280;1848;51.042;7.066;2022-07-01T00:22:30;100240.34;;;13.76;100.00
3664;BME280;1848;51.042;7.066;2022-07-01T00:24:56;100237.66;;;13.76;100.00
3664;BME280;1848;51.042;7.066;2022-07-01T00:27:23;100242.84;;;13.78;100.00
3664;BME280;1848;51.042;7.066;2022-07-01T00:29:49;100230.84;;;13.80;100.00
3664;BME280;1848;51.042;7.066;2022-07-01T00:32:16;100236.41;;;13.85;100.00
3664;BME280;1848;51.042;7.066;2022-07-01T00:34:42;100244.69;;;13.84;100.00
3664;BME280;1848;51.042;7.066;2022-07-01T00:37:09;100251.06;;;13.89;100.00
3664;BME280;1848;51.042;7.066;2022-07-01T00:39:35;100249.63;;;13.87;100.00
3664;BME280;1848;51.042;7.066;2022-07-01T00:42:04;100257.31;;;13.83;100.00
3664;BME280;1848;51.042;7.066;2022-07-01T00:44:31;100260.00;;;13.83;100.00
3664;BME280;1848;51.042;7.066;2022-07-01T00:47:03;100259.59;;;13.80;100.00
3664;BME280;1848;51.042;7.066;2022-07-01T00:49:30;100262.50;;;13.78;100.00
3664;BME280;1848;51.042;7.066;2022-07-01T00:51:57;100264.78;;;13.75;100.00
3664;BME280;1848;51.042;7.066;2022-07-01T00:54:25;100266.00;;;13.72;100.00
3664;BME280;1848;51.042;7.066;2022-07-01T00:56:52;100270.56;;;13.71;100.00
3664;BME280;1848;51.042;7.066;2022-07-01T00:59:19;100273.47;;;13.70;100.00
3664;BME280;1848;51.042;7.066;2022-07-01T01:01:45;100266.84;;;13.73;100.00
3664;BME280;1848;51.042;7.066;2022-07-01T01:04:11;100280.72;;;13.69;100.00
3664;BME280;1848;51.042;7.066;2022-07-01T01:06:38;100294.75;;;13.71;100.00
3664;BME280;1848;51.042;7.066;2022-07-01T01:09:04;100291.00;;;13.73;100.00
3664;BME280;1848;51.042;7.066;2022-07-01T01:11:31;100289.78;;;13.75;100.00
3664;BME280;1848;51.042;7.066;2022-07-01T01:13:58;100272.66;;;13.69;100.00
3664;BME280;1848;51.042;7.066;2022-07-01T01:16:24;100287.06;;;13.82;100.00
3664;BME280;1848;51.042;7.066;2022-07-01T01:18:52;100306.50;;;13.84;100.00
3664;BME280;1848;51.042;7.066;2022-07-01T01:21:19;100301.31;;;13.82;100.00
3664;BME280;1848;51.042;7.066;2022-07-01T01:23:46;100300.72;;;13.80;100.00
3664;BME280;1848;51.042;7.066;2022-07-01T01:26:22;100298.66;;;13.76;100.00
3664;BME280;1848;51.042;7.066;2022-07-01T01:28:51;100303.00;;;13.77;100.00
3664;BME280;1848;51.042;7.066;2022-07-01T01:31:18;100309.19;;;13.77;100.00
3664;BME280;1848;51.042;7.066;2022-07-01T01:33:54;100317.66;;;13.81;100.00
3664;BME280;1848;51.042;7.066;2022-07-01T01:36:21;100307.97;;;13.80;100.00
3664;BME280;1848;51.042;7.066;2022-07-01T01:38:47;100309.00;;;13.79;100.00
3664;BME280;1848;51.042;7.066;2022-07-01T01:41:14;100309.00;;;13.79;100.00
3664;BME280;1848;51.042;7.066;2022-07-01T01:43:40;100315.84;;;13.75;100.00
3664;BME280;1848;51.042;7.066;2022-07-01T01:46:06;100315.19;;;13.73;100.00
3664;BME280;1848;51.042;7.066;2022-07-01T01:48:33;100320.97;;;13.76;100.00
3664;BME280;1848;51.042;7.066;2022-07-01T01:50:59;100324.50;;;13.77;100.00
3664;BME280;1848;51.042;7.066;2022-07-01T01:53:26;100330.06;;;13.82;100.00
3664;BME280;1848;51.042;7.066;2022-07-01T01:55:52;100334.84;;;13.80;100.00
3664;BME280;1848;51.042;7.066;2022-07-01T01:58:19;100331.09;;;13.81;100.00
3664;BME280;1848;51.042;7.066;2022-07-01T02:00:46;100306.53;;;13.70;100.00
3664;BME280;1848;51.042;7.066;2022-07-01T02:03:12;100326.53;;;13.81;100.00
3664;BME280;1848;51.042;7.066;2022-07-01T02:05:38;100335.03;;;13.85;100.00
3664;BME280;1848;51.042;7.066;2022-07-01T02:08:12;100325.72;;;13.87;100.00
3664;BME280;1848;51.042;7.066;2022-07-01T02:10:38;100328.19;;;13.89;100.00
3664;BME280;1848;51.042;7.066;2022-07-01T02:13:04;100333.34;;;13.90;100.00
3664;BME280;1848;51.042;7.066;2022-07-01T02:15:31;100336.84;;;13.91;100.00
3664;BME280;1848;51.042;7.066;2022-07-01T02:17:57;100341.22;;;13.92;100.00
3664;BME280;1848;51.042;7.066;2022-07-01T02:20:23;100342.22;;;13.98;100.00
3664;BME280;1848;51.042;7.066;2022-07-01T02:22:50;100341.38;;;14.04;100.00
3664;BME280;1848;51.042;7.066;2022-07-01T02:25:17;100340.72;;;14.08;100.00
3664;BME280;1848;51.042;7.066;2022-07-01T02:27:45;100340.09;;;14.13;100.00
3664;BME280;1848;51.042;7.066;2022-07-01T02:30:12;100342.78;;;14.13;100.00
3664;BME280;1848;51.042;7.066;2022-07-01T02:32:39;100352.47;;;14.14;100.00
3664;BME280;1848;51.042;7.066;2022-07-01T02:35:06;100346.97;;;14.02;100.00
3664;BME280;1848;51.042;7.066;2022-07-01T02:37:32;100355.81;;;14.09;100.00
3664;BME280;1848;51.042;7.066;2022-07-01T02:40:00;100360.81;;;14.06;100.00
3664;BME280;1848;51.042;7.066;2022-07-01T02:42:26;100376.34;;;14.04;100.00
3664;BME280;1848;51.042;7.066;2022-07-01T02:44:56;100388.94;;;14.03;100.00
3664;BME280;1848;51.042;7.066;2022-07-01T02:47:22;100367.66;;;13.95;100.00
3664;BME280;1848;51.042;7.066;2022-07-01T02:49:49;100385.03;;;13.99;100.00
3664;BME280;1848;51.042;7.066;2022-07-01T02:52:15;100400.28;;;14.05;100.00
3664;BME280;1848;51.042;7.066;2022-07-01T02:54:43;100406.13;;;14.02;100.00
3664;BME280;1848;51.042;7.066;2022-07-01T02:57:09;100405.66;;;14.05;100.00
3664;BME280;1848;51.042;7.066;2022-07-01T02:59:36;100401.97;;;13.93;100.00
3664;BME280;1848;51.042;7.066;2022-07-01T03:02:02;100414.38;;;14.07;100.00
3664;BME280;1848;51.042;7.066;2022-07-01T03:04:29;100420.78;;;14.06;100.00
3664;BME280;1848;51.042;7.066;2022-07-01T03:06:56;100424.06;;;14.08;100.00
3664;BME280;1848;51.042;7.066;2022-07-01T03:09:23;100420.78;;;14.06;100.00
3664;BME280;1848;51.042;7.066;2022-07-01T03:11:49;100414.38;;;14.07;100.00
3664;BME280;1848;51.042;7.066;2022-07-01T03:14:16;100415.19;;;14.08;100.00
3664;BME280;1848;51.042;7.066;2022-07-01T03:16:42;100412.69;;;14.13;100.00
3664;BME280;1848;51.042;7.066;2022-07-01T03:19:08;100407.31;;;14.13;100.00
3664;BME280;1848;51.042;7.066;2022-07-01T03:21:35;100405.03;;;14.10;100.00
3664;BME280;1848;51.042;7.066;2022-07-01T03:24:01;100407.13;;;14.08;100.00
3664;BME280;1848;51.042;7.066;2022-07-01T03:26:28;100410.03;;;14.06;100.00
3664;BME280;1848;51.042;7.066;2022-07-01T03:28:55;100408.53;;;14.11;100.00
3664;BME280;1848;51.042;7.066;2022-07-01T03:31:21;100399.66;;;14.10;100.00
3664;BME280;1848;51.042;7.066;2022-07-01T03:33:48;100395.56;;;14.07;100.00
3664;BME280;1848;51.042;7.066;2022-07-01T03:36:14;100395.78;;;13.99;100.00
3664;BME280;1848;51.042;7.066;2022-07-01T03:38:41;100409.00;;;14.07;100.00
3664;BME280;1848;51.042;7.066;2022-07-01T03:41:08;100417.06;;;14.07;100.00
3664;BME280;1848;51.042;7.066;2022-07-01T03:43:35;100420.34;;;14.09;100.00
3664;BME280;1848;51.042;7.066;2022-07-01T03:46:01;100421.56;;;14.14;100.00
3664;BME280;1848;51.042;7.066;2022-07-01T03:48:27;100412.09;;;14.11;100.00
3664;BME280;1848;51.042;7.066;2022-07-01T03:50:54;100407.34;;;14.06;100.00
3664;BME280;1848;51.042;7.066;2022-07-01T03:53:20;100387.69;;;14.13;100.00
3664;BME280;1848;51.042;7.066;2022-07-01T03:56:05;100390.31;;;14.19;100.00
3664;BME280;1848;51.042;7.066;2022-07-01T03:58:32;100387.81;;;14.24;100.00
3664;BME280;1848;51.042;7.066;2022-07-01T04:00:59;100387.38;;;14.27;100.00
3664;BME280;1848;51.042;7.066;2022-07-01T04:03:25;100395.84;;;14.31;100.00
3664;BME280;1848;51.042;7.066;2022-07-01T04:05:52;100407.50;;;14.25;100.00
3664;BME280;1848;51.042;7.066;2022-07-01T04:08:18;100410.41;;;14.17;100.00
3664;BME280;1848;51.042;7.066;2022-07-01T04:10:44;100407.72;;;14.17;100.00
3664;BME280;1848;51.042;7.066;2022-07-01T04:13:11;100388.94;;;13.97;100.00
3664;BME280;1848;51.042;7.066;2022-07-01T04:15:55;100402.97;;;14.05;100.00
3664;BME280;1848;51.042;7.066;2022-07-01T04:18:22;100383.78;;;13.95;100.00
3664;BME280;1848;51.042;7.066;2022-07-01T04:20:49;100406.31;;;14.07;100.00
3664;BME280;1848;51.042;7.066;2022-07-01T04:23:34;100406.72;;;14.04;100.00
3664;BME280;1848;51.042;7.066;2022-07-01T04:26:01;100406.94;;;14.03;100.00
3664;BME280;1848;51.042;7.066;2022-07-01T04:28:48;100404.63;;;14.06;100.00
3664;BME280;1848;51.042;7.066;2022-07-01T04:31:14;100393.88;;;14.06;100.00
3664;BME280;1848;51.042;7.066;2022-07-01T04:33:41;100402.16;;;14.05;100.00
3664;BME280;1848;51.042;7.066;2022-07-01T04:36:07;100402.38;;;14.03;100.00
3664;BME280;1848;51.042;7.066;2022-07-01T04:38:34;100410.84;;;14.07;100.00
3664;BME280;1848;51.042;7.066;2022-07-01T04:41:00;100396.59;;;14.00;100.00
3664;BME280;1848;51.042;7.066;2022-07-01T04:43:45;100401.75;;;14.08;100.00
3664;BME280;1848;51.042;7.066;2022-07-01T04:46:11;100409.19;;;14.13;100.00
3664;BME280;1848;51.042;7.066;2022-07-01T04:48:38;100404.44;;;14.08;100.00
3664;BME280;1848;51.042;7.066;2022-07-01T04:51:06;100412.91;;;14.05;100.00
3664;BME280;1848;51.042;7.066;2022-07-01T04:53:32;100407.53;;;14.05;100.00
3664;BME280;1848;51.042;7.066;2022-07-01T04:55:59;100397.84;;;13.97;100.00
3664;BME280;1848;51.042;7.066;2022-07-01T04:58:25;100400.72;;;14.02;100.00
3664;BME280;1848;51.042;7.066;2022-07-01T05:00:52;100402.16;;;14.05;100.00
3664;BME280;1848;51.042;7.066;2022-07-01T05:03:19;100395.56;;;14.07;100.00
3664;BME280;1848;51.042;7.066;2022-07-01T05:05:45;100372.41;;;14.00;100.00
3664;BME280;1848;51.042;7.066;2022-07-01T05:08:12;100383.50;;;14.17;100.00
3664;BME280;1848;51.042;7.066;2022-07-01T05:10:38;100378.53;;;14.20;100.00
3664;BME280;1848;51.042;7.066;2022-07-01T05:13:04;100374.41;;;14.18;100.00
3664;BME280;1848;51.042;7.066;2022-07-01T05:15:31;100369.66;;;14.13;100.00
3664;BME280;1848;51.042;7.066;2022-07-01T05:17:57;100371.09;;;14.16;100.00
3664;BME280;1848;51.042;7.066;2022-07-01T05:20:42;100376.25;;;14.17;100.00
3664;BME280;1848;51.042;7.066;2022-07-01T05:23:33;100372.75;;;14.17;100.00
3664;BME280;1848;51.042;7.066;2022-07-01T05:25:59;100367.78;;;14.20;100.00
3664;BME280;1848;51.042;7.066;2022-07-01T05:28:26;100372.13;;;14.21;100.00
3664;BME280;1848;51.042;7.066;2022-07-01T05:30:52;100377.91;;;14.25;100.00
3664;BME280;1848;51.042;7.066;2022-07-01T05:33:19;100382.84;;;14.28;100.00
3664;BME280;1848;51.042;7.066;2022-07-01T05:35:47;100397.13;;;14.28;100.00
3664;BME280;1848;51.042;7.066;2022-07-01T05:38:14;100402.28;;;14.30;100.00
3664;BME280;1848;51.042;7.066;2022-07-01T05:40:40;100409.72;;;14.35;100.00
3664;BME280;1848;51.042;7.066;2022-07-01T05:43:07;100406.81;;;14.36;100.00
3664;BME280;1848;51.042;7.066;2022-07-01T05:45:33;100387.00;;;14.24;100.00
3664;BME280;1848;51.042;7.066;2022-07-01T05:48:00;100413.44;;;14.40;100.00
3664;BME280;1848;51.042;7.066;2022-07-01T05:50:26;100424.59;;;14.44;100.00
3664;BME280;1848;51.042;7.066;2022-07-01T05:52:53;100432.44;;;14.45;100.00
3664;BME280;1848;51.042;7.066;2022-07-01T05:55:19;100433.28;;;14.39;100.00
3664;BME280;1848;51.042;7.066;2022-07-01T05:57:46;100432.06;;;14.35;100.00
3664;BME280;1848;51.042;7.066;2022-07-01T06:00:13;100421.94;;;14.31;100.00
3664;BME280;1848;51.042;7.066;2022-07-01T06:02:39;100435.28;;;14.64;100.00
3664;BME280;1848;51.042;7.066;2022-07-01T06:05:06;100434.19;;;14.78;100.00
3664;BME280;1848;51.042;7.066;2022-07-01T06:07:32;100441.56;;;14.90;100.00
3664;BME280;1848;51.042;7.066;2022-07-01T06:09:59;100429.13;;;14.95;100.00
3664;BME280;1848;51.042;7.066;2022-07-01T06:12:25;100403.69;;;14.84;98.93
3664;BME280;1848;51.042;7.066;2022-07-01T06:14:52;100426.63;;;14.94;99.34
3664;BME280;1848;51.042;7.066;2022-07-01T06:17:18;100439.47;;;14.92;99.68
3664;BME280;1848;51.042;7.066;2022-07-01T06:19:44;100442.47;;;15.09;99.87
3664;BME280;1848;51.042;7.066;2022-07-01T06:22:11;100444.09;;;15.16;97.50
3664;BME280;1848;51.042;7.066;2022-07-01T06:24:37;100451.13;;;15.17;97.87
3664;BME280;1848;51.042;7.066;2022-07-01T06:27:04;100470.44;;;15.14;96.95
3664;BME280;1848;51.042;7.066;2022-07-01T06:29:31;100458.81;;;15.14;97.58
3664;BME280;1848;51.042;7.066;2022-07-01T06:31:57;100468.13;;;15.18;97.58
3664;BME280;1848;51.042;7.066;2022-07-01T06:34:24;100473.91;;;15.21;98.09
3664;BME280;1848;51.042;7.066;2022-07-01T06:36:50;100474.94;;;15.20;97.38
3664;BME280;1848;51.042;7.066;2022-07-01T06:39:17;100467.31;;;15.11;95.88
3664;BME280;1848;51.042;7.066;2022-07-01T06:41:44;100471.59;;;15.25;96.29
3664;BME280;1848;51.042;7.066;2022-07-01T06:44:11;100476.09;;;15.31;96.44
3664;BME280;1848;51.042;7.066;2022-07-01T06:46:37;100490.19;;;15.33;96.36
3664;BME280;1848;51.042;7.066;2022-07-01T06:49:04;100491.78;;;15.41;95.43
3664;BME280;1848;51.042;7.066;2022-07-01T06:51:31;100468.31;;;15.48;94.21
3664;BME280;1848;51.042;7.066;2022-07-01T06:53:57;100478.69;;;15.76;94.92
3664;BME280;1848;51.042;7.066;2022-07-01T06:56:24;100478.72;;;15.95;94.25
3664;BME280;1848;51.042;7.066;2022-07-01T06:58:50;100493.06;;;16.14;93.25
3664;BME280;1848;51.042;7.066;2022-07-01T07:01:16;100490.81;;;16.29;92.33
3664;BME280;1848;51.042;7.066;2022-07-01T07:03:43;100491.06;;;16.46;92.95
3664;BME280;1848;51.042;7.066;2022-07-01T07:06:10;100487.75;;;16.63;92.22
3664;BME280;1848;51.042;7.066;2022-07-01T07:08:36;100491.88;;;16.65;89.71
3664;BME280;1848;51.042;7.066;2022-07-01T07:11:03;100488.34;;;16.65;87.04
3664;BME280;1848;51.042;7.066;2022-07-01T07:13:29;100484.22;;;16.62;88.60
3664;BME280;1848;51.042;7.066;2022-07-01T07:15:56;100480.34;;;16.58;87.84
3664;BME280;1848;51.042;7.066;2022-07-01T07:18:22;100480.63;;;16.50;88.90
3664;BME280;1848;51.042;7.066;2022-07-01T07:20:48;100476.38;;;16.42;89.23
3664;BME280;1848;51.042;7.066;2022-07-01T07:23:15;100492.25;;;16.32;89.50
3664;BME280;1848;51.042;7.066;2022-07-01T07:25:41;100510.09;;;16.33;90.97
3664;BME280;1848;51.042;7.066;2022-07-01T07:28:08;100518.88;;;16.28;89.33
3664;BME280;1848;51.042;7.066;2022-07-01T07:30:34;100508.81;;;16.17;89.41
3664;BME280;1848;51.042;7.066;2022-07-01T07:33:00;100505.94;;;16.12;90.37
3664;BME280;1848;51.042;7.066;2022-07-01T07:35:27;100507.44;;;16.08;89.70
3664;BME280;1848;51.042;7.066;2022-07-01T07:37:54;100525.56;;;16.01;91.28
3664;BME280;1848;51.042;7.066;2022-07-01T07:40:20;100519.56;;;15.99;91.51
3664;BME280;1848;51.042;7.066;2022-07-01T07:42:48;100514.69;;;16.07;90.09
3664;BME280;1848;51.042;7.066;2022-07-01T07:45:15;100528.75;;;16.16;90.66
3664;BME280;1848;51.042;7.066;2022-07-01T07:47:47;100532.06;;;16.18;89.43
3664;BME280;1848;51.042;7.066;2022-07-01T07:50:21;100526.22;;;16.21;89.88
3664;BME280;1848;51.042;7.066;2022-07-01T07:52:48;100523.53;;;16.21;89.42
3664;BME280;1848;51.042;7.066;2022-07-01T07:55:15;100528.44;;;16.24;89.81
3664;BME280;1848;51.042;7.066;2022-07-01T07:57:41;100529.34;;;16.37;90.21
3664;BME280;1848;51.042;7.066;2022-07-01T08:00:10;100520.00;;;16.39;89.82
3664;BME280;1848;51.042;7.066;2022-07-01T08:02:38;100536.28;;;16.51;88.66
3664;BME280;1848;51.042;7.066;2022-07-01T08:05:06;100519.63;;;16.54;87.12
3664;BME280;1848;51.042;7.066;2022-07-01T08:07:41;100542.88;;;16.74;87.59
3664;BME280;1848;51.042;7.066;2022-07-01T08:10:10;100537.03;;;16.77;86.54
3664;BME280;1848;51.042;7.066;2022-07-01T08:12:37;100530.19;;;16.74;86.65
3664;BME280;1848;51.042;7.066;2022-07-01T08:15:05;100515.81;;;16.62;86.94
3664;BME280;1848;51.042;7.066;2022-07-01T08:17:32;100528.03;;;16.64;85.68
3664;BME280;1848;51.042;7.066;2022-07-01T08:19:58;100527.81;;;16.84;87.13
3664;BME280;1848;51.042;7.066;2022-07-01T08:22:25;100543.84;;;17.16;87.55
3664;BME280;1848;51.042;7.066;2022-07-01T08:24:51;100537.31;;;17.36;83.72
3664;BME280;1848;51.042;7.066;2022-07-01T08:27:17;100531.72;;;17.49;82.65
3664;BME280;1848;51.042;7.066;2022-07-01T08:29:44;100532.34;;;17.63;81.15
3664;BME280;1848;51.042;7.066;2022-07-01T08:32:10;100546.00;;;17.68;81.79
3664;BME280;1848;51.042;7.066;2022-07-01T08:34:37;100551.41;;;17.68;80.10
3664;BME280;1848;51.042;7.066;2022-07-01T08:37:03;100563.13;;;17.62;81.23
3664;BME280;1848;51.042;7.066;2022-07-01T08:39:30;100567.41;;;17.70;80.00
3664;BME280;1848;51.042;7.066;2022-07-01T08:41:57;100571.91;;;17.88;80.34
3664;BME280;1848;51.042;7.066;2022-07-01T08:44:24;100574.75;;;17.93;80.56
3664;BME280;1848;51.042;7.066;2022-07-01T08:46:51;100561.09;;;17.88;79.08
3664;BME280;1848;51.042;7.066;2022-07-01T08:49:17;100577.94;;;18.01;79.40
3664;BME280;1848;51.042;7.066;2022-07-01T08:51:44;100568.16;;;17.89;79.34
3664;BME280;1848;51.042;7.066;2022-07-01T08:54:11;100573.09;;;17.92;77.75
3664;BME280;1848;51.042;7.066;2022-07-01T08:56:37;100568.34;;;17.75;77.65
3664;BME280;1848;51.042;7.066;2022-07-01T08:59:21;100552.91;;;17.64;80.42
3664;BME280;1848;51.042;7.066;2022-07-01T09:01:55;100564.69;;;17.81;80.51
3664;BME280;1848;51.042;7.066;2022-07-01T09:04:22;100554.16;;;17.92;81.49
3664;BME280;1848;51.042;7.066;2022-07-01T09:06:50;100549.47;;;18.23;79.68
3664;BME280;1848;51.042;7.066;2022-07-01T09:09:18;100557.69;;;18.63;80.51
3664;BME280;1848;51.042;7.066;2022-07-01T09:11:51;100561.63;;;18.96;76.86
3664;BME280;1848;51.042;7.066;2022-07-01T09:14:23;100565.13;;;19.08;77.09
3664;BME280;1848;51.042;7.066;2022-07-01T09:16:55;100564.00;;;19.21;73.90
3664;BME280;1848;51.042;7.066;2022-07-01T09:19:22;100565.66;;;19.22;72.81
3664;BME280;1848;51.042;7.066;2022-07-01T09:21:54;100567.00;;;19.20;73.76
3664;BME280;1848;51.042;7.066;2022-07-01T09:24:26;100563.09;;;19.16;74.80
3664;BME280;1848;51.042;7.066;2022-07-01T09:27:01;100563.91;;;18.87;74.74
3664;BME280;1848;51.042;7.066;2022-07-01T09:29:34;100566.41;;;18.42;76.35
3664;BME280;1848;51.042;7.066;2022-07-01T09:32:04;100569.81;;;18.01;75.30
3664;BME280;1848;51.042;7.066;2022-07-01T09:34:42;100579.38;;;17.74;78.04
3664;BME280;1848;51.042;7.066;2022-07-01T09:37:15;100569.69;;;17.54;80.12
3664;BME280;1848;51.042;7.066;2022-07-01T09:39:49;100578.13;;;17.46;81.01
3664;BME280;1848;51.042;7.066;2022-07-01T09:42:17;100566.97;;;17.42;79.33
3664;BME280;1848;51.042;7.066;2022-07-01T09:44:51;100583.00;;;17.56;80.20
3664;BME280;1848;51.042;7.066;2022-07-01T09:47:22;100585.28;;;17.82;79.84
3664;BME280;1848;51.042;7.066;2022-07-01T09:49:49;100584.63;;;18.11;75.10
3664;BME280;1848;51.042;7.066;2022-07-01T09:52:16;100573.41;;;18.78;73.52
3664;BME280;1848;51.042;7.066;2022-07-01T09:54:46;100577.75;;;19.31;72.00
3664;BME280;1848;51.042;7.066;2022-07-01T09:57:18;100584.69;;;19.68;68.03
3664;BME280;1848;51.042;7.066;2022-07-01T09:59:45;100577.31;;;19.80;63.42
3664;BME280;1848;51.042;7.066;2022-07-01T10:02:12;100585.84;;;20.40;63.37
3664;BME280;1848;51.042;7.066;2022-07-01T10:04:42;100573.59;;;21.20;59.46
3664;BME280;1848;51.042;7.066;2022-07-01T10:10:41;100596.53;;;22.54;57.57
3664;BME280;1848;51.042;7.066;2022-07-01T10:13:12;100599.72;;;22.03;56.68
3664;BME280;1848;51.042;7.066;2022-07-01T10:15:43;100596.06;;;21.60;58.11
3664;BME280;1848;51.042;7.066;2022-07-01T10:18:25;100595.38;;;22.40;60.63
3664;BME280;1848;51.042;7.066;2022-07-01T10:20:53;100597.03;;;22.99;54.04
3664;BME280;1848;51.042;7.066;2022-07-01T10:23:21;100590.22;;;23.01;53.43
3664;BME280;1848;51.042;7.066;2022-07-01T10:25:52;100592.31;;;23.62;50.92
3664;BME280;1848;51.042;7.066;2022-07-01T10:28:21;100593.16;;;23.73;50.81
3664;BME280;1848;51.042;7.066;2022-07-01T10:33:29;100584.72;;;24.11;49.11
3664;BME280;1848;51.042;7.066;2022-07-01T10:36:15;100600.19;;;23.38;52.93
3664;BME280;1848;51.042;7.066;2022-07-01T10:41:32;100600.25;;;21.73;53.07
3664;BME280;1848;51.042;7.066;2022-07-01T10:44:02;100604.56;;;21.19;53.71
3664;BME280;1848;51.042;7.066;2022-07-01T10:46:49;100599.34;;;21.13;53.66
3664;BME280;1848;51.042;7.066;2022-07-01T10:52:14;100597.03;;;21.49;51.64
3664;BME280;1848;51.042;7.066;2022-07-01T10:54:46;100600.28;;;21.24;51.69
3664;BME280;1848;51.042;7.066;2022-07-01T10:59:54;100591.78;;;21.42;52.07
3664;BME280;1848;51.042;7.066;2022-07-01T11:02:26;100591.59;;;22.46;51.76
3664;BME280;1848;51.042;7.066;2022-07-01T11:04:56;100591.16;;;23.22;48.91
3664;BME280;1848;51.042;7.066;2022-07-01T11:07:24;100592.63;;;23.81;50.69
3664;BME280;1848;51.042;7.066;2022-07-01T11:09:51;100590.69;;;23.51;47.98
3664;BME280;1848;51.042;7.066;2022-07-01T11:12:20;100572.38;;;22.73;48.07
3664;BME280;1848;51.042;7.066;2022-07-01T11:14:46;100596.03;;;22.25;51.10
3664;BME280;1848;51.042;7.066;2022-07-01T11:17:13;100595.84;;;21.94;51.84
3664;BME280;1848;51.042;7.066;2022-07-01T11:19:47;100596.31;;;21.59;52.73
3664;BME280;1848;51.042;7.066;2022-07-01T11:22:21;100581.09;;;21.35;54.44
3664;BME280;1848;51.042;7.066;2022-07-01T11:24:56;100590.84;;;21.86;53.51
3664;BME280;1848;51.042;7.066;2022-07-01T11:27:23;100579.06;;;23.03;50.15
3664;BME280;1848;51.042;7.066;2022-07-01T11:29:52;100599.09;;;23.34;46.94
3664;BME280;1848;51.042;7.066;2022-07-01T11:32:29;100586.59;;;23.74;48.41
3664;BME280;1848;51.042;7.066;2022-07-01T11:34:57;100584.69;;;23.59;46.00
3664;BME280;1848;51.042;7.066;2022-07-01T11:37:26;100590.75;;;23.97;48.26
3664;BME280;1848;51.042;7.066;2022-07-01T11:40:13;100585.38;;;24.83;45.55
3664;BME280;1848;51.042;7.066;2022-07-01T11:42:41;100590.41;;;25.21;42.83
3664;BME280;1848;51.042;7.066;2022-07-01T11:45:24;100589.81;;;25.79;43.20
3664;BME280;1848;51.042;7.066;2022-07-01T11:47:52;100588.97;;;26.13;43.27
3664;BME280;1848;51.042;7.066;2022-07-01T11:50:19;100591.88;;;25.58;41.46
3664;BME280;1848;51.042;7.066;2022-07-01T11:52:46;100593.41;;;24.54;42.90
3664;BME280;1848;51.042;7.066;2022-07-01T11:55:12;100586.59;;;23.74;45.20
3664;BME280;1848;51.042;7.066;2022-07-01T11:57:59;100585.38;;;23.09;46.74
3664;BME280;1848;51.042;7.066;2022-07-01T12:00:32;100577.25;;;22.66;51.77
3664;BME280;1848;51.042;7.066;2022-07-01T12:02:59;100591.13;;;22.59;50.12
3664;BME280;1848;51.042;7.066;2022-07-01T12:05:26;100566.28;;;23.09;49.89
3664;BME280;1848;51.042;7.066;2022-07-01T12:07:53;100577.91;;;23.93;47.06
3664;BME280;1848;51.042;7.066;2022-07-01T12:10:23;100577.34;;;24.06;45.27
3664;BME280;1848;51.042;7.066;2022-07-01T12:12:50;100588.81;;;23.83;45.02
3664;BME280;1848;51.042;7.066;2022-07-01T12:15:17;100583.91;;;24.05;45.51
3664;BME280;1848;51.042;7.066;2022-07-01T12:17:43;100583.31;;;24.39;44.12
3664;BME280;1848;51.042;7.066;2022-07-01T12:20:10;100583.81;;;24.72;43.69
3664;BME280;1848;51.042;7.066;2022-07-01T12:22:36;100580.44;;;24.90;44.00
3664;BME280;1848;51.042;7.066;2022-07-01T12:25:07;100581.81;;;24.93;44.98
3664;BME280;1848;51.042;7.066;2022-07-01T12:27:35;100566.84;;;24.75;43.28
3664;BME280;1848;51.042;7.066;2022-07-01T12:30:02;100585.47;;;25.23;43.12
3664;BME280;1848;51.042;7.066;2022-07-01T12:32:29;100592.38;;;25.15;41.53
3664;BME280;1848;51.042;7.066;2022-07-01T12:35:02;100582.19;;;24.40;42.63
3664;BME280;1848;51.042;7.066;2022-07-01T12:37:33;100581.13;;;23.74;43.81
3664;BME280;1848;51.042;7.066;2022-07-01T12:40:04;100569.22;;;22.97;46.64
3664;BME280;1848;51.042;7.066;2022-07-01T12:42:31;100588.34;;;22.54;48.34
3664;BME280;1848;51.042;7.066;2022-07-01T12:45:09;100569.66;;;22.73;48.66
3664;BME280;1848;51.042;7.066;2022-07-01T12:47:47;100584.38;;;23.40;44.87
3664;BME280;1848;51.042;7.066;2022-07-01T12:50:15;100583.06;;;23.79;45.80
3664;BME280;1848;51.042;7.066;2022-07-01T12:52:56;100592.34;;;24.14;45.76
3664;BME280;1848;51.042;7.066;2022-07-01T12:55:23;100576.72;;;24.50;43.26
3664;BME280;1848;51.042;7.066;2022-07-01T12:57:53;100573.06;;;24.91;43.30
3664;BME280;1848;51.042;7.066;2022-07-01T13:00:22;100580.94;;;25.03;43.52
3664;BME280;1848;51.042;7.066;2022-07-01T13:02:54;100571.38;;;24.95;41.77
3664;BME280;1848;51.042;7.066;2022-07-01T13:05:21;100574.41;;;24.93;40.91
3664;BME280;1848;51.042;7.066;2022-07-01T13:07:47;100582.41;;;24.74;41.00
3664;BME280;1848;51.042;7.066;2022-07-01T13:10:15;100576.59;;;24.91;40.61
3664;BME280;1848;51.042;7.066;2022-07-01T13:12:43;100571.50;;;24.64;41.25
3664;BME280;1848;51.042;7.066;2022-07-01T13:15:14;100573.50;;;24.23;40.91
3664;BME280;1848;51.042;7.066;2022-07-01T13:17:42;100583.09;;;23.89;41.58
3664;BME280;1848;51.042;7.066;2022-07-01T13:20:10;100578.94;;;23.40;42.61
3664;BME280;1848;51.042;7.066;2022-07-01T13:22:37;100579.41;;;23.17;42.83
3664;BME280;1848;51.042;7.066;2022-07-01T13:25:03;100580.75;;;23.19;42.37